Time;durP1;ratioP1;P1;durP2;ratioP2;P2;SDS_P1;SDS_P2;PMS_P1;PMS_P2;Temp;Humidity;BMP_temperature;BMP_pressure;BME280_temperature;BME280_humidity;BME280_pressure;Samples;Min_cycle;Max_cycle;Signal;HPM_P1;HPM_P2
2022/10/24 00:01:49;;;;;;;5.27;4.17;;;14.10;99.90;14.00;100223.00;;;;4750862;29;109958;-67
2022/10/24 00:04:14;;;;;;;6.43;4.67;;;14.00;99.90;14.00;100229.00;;;;4760911;29;108056;-66
2022/10/24 00:06:40;;;;;;;6.43;3.77;;;14.00;99.90;13.90;100231.00;;;;4745406;29;124487;-67
2022/10/24 00:09:07;;;;;;;7.90;3.40;;;13.90;99.90;13.90;100233.00;;;;4749585;29;122062;-66
2022/10/24 00:11:33;;;;;;;7.03;4.40;;;13.90;99.90;13.80;100223.00;;;;4752575;29;111402;-66
2022/10/24 00:13:58;;;;;;;7.93;4.73;;;13.80;99.90;13.70;100227.00;;;;4749121;29;96184;-66
2022/10/24 00:16:26;;;;;;;5.43;4.33;;;13.70;99.90;13.70;100221.00;;;;4752087;29;93948;-66
2022/10/24 00:18:52;;;;;;;7.43;3.63;;;13.70;99.90;13.60;100228.00;;;;4747774;29;99061;-67
2022/10/24 00:21:18;;;;;;;5.20;3.90;;;13.60;99.90;13.50;100227.00;;;;4748101;29;93180;-66
2022/10/24 00:23:44;;;;;;;6.13;4.53;;;13.60;99.90;13.50;100231.00;;;;4752898;29;93182;-66
2022/10/24 00:26:10;;;;;;;5.07;4.10;;;13.50;99.90;13.50;100233.00;;;;4756299;29;114064;-66
2022/10/24 00:28:37;;;;;;;5.80;4.47;;;13.50;99.90;13.40;100233.00;;;;4753608;29;93123;-66
2022/10/24 00:31:05;;;;;;;6.87;4.40;;;13.40;99.90;13.40;100238.00;;;;4748247;29;110718;-66
2022/10/24 00:33:31;;;;;;;9.37;4.90;;;13.40;99.90;13.30;100229.00;;;;4737043;29;92782;-66
2022/10/24 00:35:57;;;;;;;7.87;4.73;;;13.30;99.90;13.30;100242.00;;;;4747870;29;98933;-66
2022/10/24 00:38:22;;;;;;;6.80;4.70;;;13.40;99.90;13.30;100237.00;;;;4752673;29;123860;-65
2022/10/24 00:40:48;;;;;;;6.13;4.03;;;13.30;99.90;13.30;100229.00;;;;4747314;29;109143;-66
2022/10/24 00:43:23;;;;;;;6.67;4.27;;;13.30;99.90;13.30;100234.00;;;;4747637;29;102513;-65
2022/10/24 00:45:55;;;;;;;4.20;3.47;;;13.30;99.90;13.30;100220.00;;;;4768141;29;108572;-66
2022/10/24 00:48:26;;;;;;;6.90;3.67;;;13.30;99.90;13.20;100213.00;;;;4773563;29;92985;-67
2022/10/24 00:50:58;;;;;;;4.27;3.83;;;13.10;99.90;13.20;100202.00;;;;4746947;29;93088;-66
2022/10/24 00:53:25;;;;;;;6.27;3.67;;;13.20;99.90;13.20;100221.00;;;;4740451;29;92706;-65
2022/10/24 00:55:55;;;;;;;7.73;4.77;;;13.20;99.90;13.10;100216.00;;;;4765715;29;94194;-65
2022/10/24 00:58:25;;;;;;;7.73;4.97;;;13.10;99.90;13.10;100209.00;;;;4748637;29;93039;-65
2022/10/24 01:00:51;;;;;;;5.63;4.07;;;13.10;99.90;13.10;100206.00;;;;4747370;29;101282;-66
2022/10/24 01:03:17;;;;;;;6.50;4.50;;;13.10;99.90;13.00;100205.00;;;;4747990;29;92820;-65
2022/10/24 01:06:34;;;;;;;8.00;4.47;;;13.10;99.90;13.00;100192.00;;;;4733012;29;122720;-65
2022/10/24 01:09:35;;;;;;;8.43;4.37;;;13.10;99.90;13.00;100195.00;;;;4771937;29;114796;-65
2022/10/24 01:12:30;;;;;;;7.33;4.53;;;13.00;99.90;13.00;100184.00;;;;4746693;29;92847;-65
2022/10/24 01:15:05;;;;;;;8.70;5.20;;;13.00;99.90;13.10;100179.00;;;;4749334;29;92944;-65
2022/10/24 01:17:53;;;;;;;8.50;5.17;;;13.00;99.90;13.00;100173.00;;;;4750931;29;92978;-65
2022/10/24 01:20:56;;;;;;;6.77;4.70;;;13.10;99.90;13.10;100168.00;;;;4750435;29;106450;-66
2022/10/24 01:23:52;;;;;;;6.40;4.00;;;13.00;99.90;13.00;100160.00;;;;4753188;29;93643;-65
2022/10/24 01:27:13;;;;;;;8.67;4.40;;;13.10;99.90;13.00;100175.00;;;;4751747;29;92947;-65
2022/10/24 01:30:10;;;;;;;7.03;5.23;;;13.10;99.90;13.00;100165.00;;;;4755407;29;94030;-65
2022/10/24 01:33:17;;;;;;;8.23;4.67;;;13.10;99.90;13.00;100174.00;;;;4773564;29;116937;-64
2022/10/24 01:35:56;;;;;;;15.53;5.57;;;13.00;99.90;13.10;100161.00;;;;4738063;29;93351;-65
2022/10/24 01:38:47;;;;;;;6.30;4.73;;;13.10;99.90;13.10;100154.00;;;;4751329;29;92921;-65
2022/10/24 01:41:18;;;;;;;9.03;5.37;;;13.00;99.90;13.10;100147.00;;;;4769320;29;99630;-65
2022/10/24 01:43:52;;;;;;;8.33;5.10;;;13.10;99.90;13.10;100126.00;;;;4757642;29;93972;-64
2022/10/24 01:46:24;;;;;;;7.30;5.03;;;13.10;99.90;13.10;100120.00;;;;4764801;29;101868;-64
2022/10/24 01:48:58;;;;;;;7.67;4.97;;;13.10;99.90;13.10;100135.00;;;;4776552;29;103512;-65
2022/10/24 01:51:26;;;;;;;7.40;5.87;;;13.10;99.90;13.10;100141.00;;;;4774702;29;93137;-65
2022/10/24 01:53:53;;;;;;;7.07;4.40;;;13.10;99.90;13.20;100141.00;;;;4770650;29;114409;-64
2022/10/24 01:56:19;;;;;;;6.93;4.83;;;13.10;99.90;13.20;100139.00;;;;4752948;29;94050;-65
2022/10/24 01:58:45;;;;;;;7.77;4.83;;;13.10;99.90;13.10;100132.00;;;;4751094;29;93019;-65
2022/10/24 02:01:16;;;;;;;8.27;5.70;;;13.10;99.90;13.10;100136.00;;;;4749978;29;96863;-65
2022/10/24 02:03:49;;;;;;;9.20;4.90;;;13.10;99.90;13.10;100131.00;;;;4749638;29;115541;-65
2022/10/24 02:06:21;;;;;;;6.60;4.73;;;13.10;99.90;13.20;100124.00;;;;4774418;29;102090;-65
2022/10/24 02:08:54;;;;;;;6.70;4.53;;;13.10;99.90;13.20;100121.00;;;;4749055;29;92912;-65
2022/10/24 02:11:20;;;;;;;6.50;4.23;;;13.10;99.90;13.20;100130.00;;;;4750209;29;116585;-64
2022/10/24 02:13:56;;;;;;;7.10;5.20;;;13.20;99.90;13.20;100126.00;;;;4755885;29;123030;-66
2022/10/24 02:16:22;;;;;;;7.70;5.33;;;13.10;99.90;13.20;100134.00;;;;4770976;29;93263;-64
2022/10/24 02:18:54;;;;;;;7.03;4.90;;;13.20;99.90;13.10;100145.00;;;;4753780;29;93083;-66
2022/10/24 02:21:22;;;;;;;7.90;4.60;;;13.10;99.90;13.20;100130.00;;;;4761952;29;116074;-65
2022/10/24 02:23:57;;;;;;;5.80;5.07;;;13.10;99.90;13.10;100133.00;;;;4751672;29;94415;-65
2022/10/24 02:26:51;;;;;;;5.77;4.13;;;13.20;99.90;13.10;100133.00;;;;4771165;29;93182;-65
2022/10/24 02:29:46;;;;;;;10.17;4.27;;;13.10;99.90;13.10;100124.00;;;;4753577;29;92936;-65
2022/10/24 02:32:20;;;;;;;4.90;4.40;;;13.10;99.90;13.10;100130.00;;;;4767551;29;93202;-64
2022/10/24 02:34:47;;;;;;;5.77;4.13;;;13.10;99.90;13.20;100115.00;;;;4770828;29;93551;-66
2022/10/24 02:37:15;;;;;;;6.97;3.97;;;13.20;99.90;13.10;100118.00;;;;4751093;29;110115;-65
2022/10/24 02:39:45;;;;;;;5.07;3.73;;;13.10;99.90;13.10;100110.00;;;;4775127;29;101377;-66
2022/10/24 02:42:13;;;;;;;6.83;5.03;;;13.10;99.90;13.10;100101.00;;;;4746459;29;114888;-65
2022/10/24 02:44:41;;;;;;;7.73;4.17;;;13.10;99.90;13.10;100105.00;;;;4750390;29;94055;-65
2022/10/24 02:47:10;;;;;;;9.50;4.83;;;13.10;99.90;13.00;100104.00;;;;4769643;29;96809;-66
2022/10/24 02:49:36;;;;;;;7.50;4.27;;;13.00;99.90;13.00;100080.00;;;;4775092;29;108006;-66
2022/10/24 02:52:02;;;;;;;5.60;3.73;;;13.10;99.90;13.00;100085.00;;;;4748185;29;100605;-64
2022/10/24 02:54:27;;;;;;;6.93;5.13;;;13.00;99.90;13.00;100096.00;;;;4750770;29;120205;-66
2022/10/24 02:57:01;;;;;;;5.37;4.00;;;13.00;99.90;13.00;100095.00;;;;4750763;29;107795;-65
2022/10/24 02:59:27;;;;;;;7.77;4.23;;;13.00;99.90;12.90;100103.00;;;;4750980;29;92807;-65
2022/10/24 03:01:53;;;;;;;5.37;3.73;;;13.00;99.90;12.90;100096.00;;;;4751764;29;110405;-65
2022/10/24 03:04:18;;;;;;;5.83;4.20;;;12.90;99.90;12.90;100107.00;;;;4751155;29;96882;-66
2022/10/24 03:06:44;;;;;;;4.73;3.80;;;12.90;99.90;12.90;100097.00;;;;4750706;29;110765;-65
2022/10/24 03:09:10;;;;;;;7.40;4.60;;;12.90;99.90;12.90;100103.00;;;;4760036;29;92885;-64
2022/10/24 03:11:36;;;;;;;6.83;4.57;;;12.90;99.90;12.80;100103.00;;;;4752486;29;123370;-64
2022/10/24 03:14:01;;;;;;;6.17;4.33;;;12.80;99.90;12.80;100100.00;;;;4747835;29;103551;-65
2022/10/24 03:16:27;;;;;;;10.33;4.90;;;12.80;99.90;12.80;100091.00;;;;4748649;29;108760;-66
2022/10/24 03:18:54;;;;;;;7.10;5.27;;;12.80;99.90;12.80;100092.00;;;;4750648;29;109109;-64
2022/10/24 03:21:20;;;;;;;6.23;3.90;;;12.80;99.90;12.80;100098.00;;;;4752578;29;93704;-64
2022/10/24 03:23:45;;;;;;;6.83;4.50;;;12.90;99.90;12.70;100093.00;;;;4759276;29;93090;-65
2022/10/24 03:26:11;;;;;;;6.77;4.47;;;12.70;99.90;12.80;100100.00;;;;4750054;29;105480;-65
2022/10/24 03:28:37;;;;;;;5.20;4.27;;;12.70;99.90;12.70;100106.00;;;;4752110;29;109595;-65
2022/10/24 03:31:04;;;;;;;6.70;4.47;;;12.80;99.90;12.70;100102.00;;;;4754489;29;94055;-65
2022/10/24 03:33:30;;;;;;;6.00;4.30;;;12.70;99.90;12.70;100114.00;;;;4750902;29;115805;-64
2022/10/24 03:35:56;;;;;;;9.00;3.93;;;12.70;99.90;12.70;100115.00;;;;4751341;29;93876;-65
2022/10/24 03:38:23;;;;;;;10.27;5.00;;;12.70;99.90;12.70;100114.00;;;;4748478;29;108050;-64
2022/10/24 03:40:49;;;;;;;7.43;5.17;;;12.70;99.90;12.70;100116.00;;;;4748018;29;94387;-64
2022/10/24 03:43:15;;;;;;;7.57;4.93;;;12.60;99.90;12.70;100130.00;;;;4753987;29;95591;-64
2022/10/24 03:45:41;;;;;;;5.67;4.30;;;12.70;99.90;12.60;100121.00;;;;4760339;29;93094;-64
2022/10/24 03:48:07;;;;;;;5.50;4.33;;;12.60;99.90;12.60;100125.00;;;;4751369;29;93584;-64
2022/10/24 03:50:33;;;;;;;7.13;5.47;;;12.60;99.90;12.60;100131.00;;;;4751098;29;93944;-63
2022/10/24 03:52:59;;;;;;;10.13;4.97;;;12.60;99.90;12.60;100117.00;;;;4754336;29;123359;-64
2022/10/24 03:55:26;;;;;;;6.03;4.33;;;12.60;99.90;12.60;100125.00;;;;4749862;29;93832;-64
2022/10/24 03:57:52;;;;;;;5.67;4.30;;;12.60;99.90;12.50;100125.00;;;;4752084;29;97094;-64
2022/10/24 04:00:18;;;;;;;7.97;5.00;;;12.50;99.90;12.50;100128.00;;;;4748581;29;94333;-64
2022/10/24 04:02:45;;;;;;;12.60;4.77;;;12.50;99.90;12.50;100125.00;;;;4746347;29;94496;-65
2022/10/24 04:05:12;;;;;;;10.10;5.20;;;12.50;99.90;12.40;100123.00;;;;4751500;29;92958;-64
2022/10/24 04:07:38;;;;;;;8.30;4.47;;;12.50;99.90;12.40;100114.00;;;;4755483;29;92783;-64
2022/10/24 04:10:05;;;;;;;7.07;4.67;;;12.40;99.90;12.40;100128.00;;;;4746685;29;117313;-64
2022/10/24 04:12:32;;;;;;;6.73;4.33;;;12.50;99.90;12.40;100131.00;;;;4746384;29;114323;-65
2022/10/24 04:14:57;;;;;;;6.67;4.63;;;12.40;99.90;12.40;100122.00;;;;4753955;29;93057;-65
2022/10/24 04:17:23;;;;;;;12.47;5.57;;;12.40;99.90;12.40;100130.00;;;;4749136;29;108559;-65
2022/10/24 04:19:49;;;;;;;5.53;4.67;;;12.40;99.90;12.40;100131.00;;;;4755581;29;100416;-66
2022/10/24 04:22:15;;;;;;;5.93;4.97;;;12.40;99.90;12.40;100120.00;;;;4746914;29;121815;-65
2022/10/24 04:24:40;;;;;;;6.10;3.57;;;12.40;99.90;12.40;100119.00;;;;4749497;29;101337;-65
2022/10/24 04:27:07;;;;;;;5.20;4.10;;;12.40;99.90;12.40;100114.00;;;;4751279;29;108903;-65
2022/10/24 04:29:34;;;;;;;6.33;4.20;;;12.30;99.90;12.40;100121.00;;;;4772461;29;123091;-65
2022/10/24 04:31:59;;;;;;;6.67;4.47;;;12.40;99.90;12.50;100105.00;;;;4745670;29;122998;-65
2022/10/24 04:34:25;;;;;;;7.67;4.43;;;12.40;99.90;12.50;100104.00;;;;4747029;29;110919;-66
2022/10/24 04:36:51;;;;;;;4.63;3.87;;;12.50;99.90;12.50;100111.00;;;;4750612;29;94068;-64
2022/10/24 04:39:18;;;;;;;4.43;3.23;;;12.50;99.90;12.60;100117.00;;;;4749909;29;123522;-65
2022/10/24 04:41:44;;;;;;;5.03;4.23;;;12.50;99.90;12.60;100115.00;;;;4753848;29;93002;-64
2022/10/24 04:44:10;;;;;;;5.90;3.73;;;12.60;99.90;12.60;100101.00;;;;4746634;29;95410;-65
2022/10/24 04:46:35;;;;;;;5.33;4.33;;;12.60;99.90;12.70;100107.00;;;;4750152;29;92800;-63
2022/10/24 04:49:01;;;;;;;5.70;4.27;;;12.60;99.90;12.60;100098.00;;;;4754006;29;122123;-64
2022/10/24 04:51:27;;;;;;;5.93;4.03;;;12.60;99.90;12.60;100106.00;;;;4748651;29;122505;-64
2022/10/24 04:53:52;;;;;;;5.30;3.87;;;12.60;99.90;12.60;100112.00;;;;4744041;29;109465;-65
2022/10/24 04:56:18;;;;;;;5.10;3.40;;;12.60;99.90;12.60;100116.00;;;;4746204;29;108692;-65
2022/10/24 04:58:44;;;;;;;6.07;3.83;;;12.60;99.90;12.60;100122.00;;;;4747078;29;113767;-65
2022/10/24 05:01:10;;;;;;;5.17;3.47;;;12.60;99.90;12.60;100115.00;;;;4749460;29;121551;-65
2022/10/24 05:03:36;;;;;;;6.17;3.77;;;12.60;99.90;12.50;100134.00;;;;4752466;29;111375;-64
2022/10/24 05:06:02;;;;;;;5.37;3.23;;;12.80;99.90;12.50;100132.00;;;;4745637;29;109199;-64
2022/10/24 05:08:27;;;;;;;6.73;3.17;;;12.50;99.90;12.50;100132.00;;;;4749503;29;101703;-64
2022/10/24 05:10:53;;;;;;;4.33;3.53;;;12.50;99.90;12.40;100130.00;;;;4751775;29;92981;-64
2022/10/24 05:13:19;;;;;;;3.60;3.27;;;12.50;99.90;12.40;100138.00;;;;4747340;29;109314;-64
2022/10/24 05:15:44;;;;;;;3.17;2.70;;;12.40;99.90;12.40;100131.00;;;;4749221;29;101344;-64
2022/10/24 05:18:10;;;;;;;6.03;3.57;;;12.40;99.90;12.30;100131.00;;;;4750252;29;105118;-65
2022/10/24 05:20:36;;;;;;;4.23;3.20;;;12.30;99.90;12.30;100140.00;;;;4749140;29;121277;-64
2022/10/24 05:23:02;;;;;;;5.27;3.37;;;12.30;99.90;12.20;100147.00;;;;4755512;29;93180;-64
2022/10/24 05:25:27;;;;;;;5.67;3.37;;;12.30;99.90;12.20;100137.00;;;;4760452;29;98217;-64
2022/10/24 05:27:53;;;;;;;3.77;3.00;;;12.20;99.90;12.10;100142.00;;;;4751526;29;94135;-64
2022/10/24 05:30:19;;;;;;;7.00;3.17;;;12.20;99.90;12.10;100138.00;;;;4752904;29;122574;-64
2022/10/24 05:32:44;;;;;;;3.90;3.03;;;12.10;99.90;12.10;100137.00;;;;4754846;29;111617;-65
2022/10/24 05:35:11;;;;;;;9.00;2.83;;;12.10;99.90;12.00;100138.00;;;;4751846;29;93033;-66
2022/10/24 05:37:37;;;;;;;3.30;2.37;;;12.10;99.90;12.00;100128.00;;;;4753598;29;98635;-64
2022/10/24 05:40:06;;;;;;;7.67;3.70;;;12.00;99.90;11.90;100147.00;;;;4752939;29;94513;-64
2022/10/24 05:42:32;;;;;;;4.27;2.90;;;12.00;99.90;11.90;100147.00;;;;4752701;29;93086;-64
2022/10/24 05:44:58;;;;;;;5.10;2.70;;;11.90;99.90;11.80;100151.00;;;;4757503;29;93148;-65
2022/10/24 05:47:23;;;;;;;6.00;4.47;;;11.90;99.90;11.80;100142.00;;;;4759725;29;93532;-64
2022/10/24 05:49:49;;;;;;;6.53;4.07;;;11.80;99.90;11.70;100150.00;;;;4747847;29;122891;-65
2022/10/24 05:52:15;;;;;;;4.67;3.93;;;11.80;99.90;11.70;100147.00;;;;4751735;29;110780;-65
2022/10/24 05:54:40;;;;;;;7.07;4.47;;;11.80;99.90;11.70;100143.00;;;;4754526;29;108141;-65
2022/10/24 05:57:06;;;;;;;12.43;6.37;;;11.70;99.90;11.60;100127.00;;;;4749688;29;122588;-65
2022/10/24 05:59:32;;;;;;;6.17;5.10;;;11.70;99.90;11.60;100125.00;;;;4756023;29;121767;-65
2022/10/24 06:01:57;;;;;;;8.43;5.07;;;11.70;99.90;11.60;100129.00;;;;4750116;29;93947;-65
2022/10/24 06:04:23;;;;;;;6.93;4.13;;;11.60;99.90;11.60;100137.00;;;;4750693;29;109250;-64
2022/10/24 06:06:49;;;;;;;5.97;4.23;;;11.60;99.90;11.60;100131.00;;;;4754660;29;121838;-64
2022/10/24 06:09:15;;;;;;;9.47;5.07;;;11.60;99.90;11.60;100132.00;;;;4757907;29;121998;-63
2022/10/24 06:11:41;;;;;;;6.83;4.87;;;11.60;99.90;11.60;100135.00;;;;4748348;29;110300;-65
2022/10/24 06:14:07;;;;;;;11.80;6.10;;;11.60;99.90;11.60;100130.00;;;;4751967;29;92949;-65
2022/10/24 06:16:33;;;;;;;10.67;5.10;;;11.60;99.90;11.60;100143.00;;;;4751061;29;123584;-65
2022/10/24 06:18:59;;;;;;;5.53;4.27;;;11.60;99.90;11.60;100136.00;;;;4753156;29;93836;-64
2022/10/24 06:21:25;;;;;;;7.23;4.47;;;11.60;99.90;11.60;100148.00;;;;4756161;29;92881;-65
2022/10/24 06:23:51;;;;;;;11.23;7.30;;;11.70;99.90;11.70;100147.00;;;;4749180;29;92829;-65
2022/10/24 06:26:17;;;;;;;19.57;9.83;;;11.70;99.90;11.70;100156.00;;;;4750124;29;94987;-65
2022/10/24 06:28:43;;;;;;;19.37;10.47;;;11.70;99.90;11.80;100146.00;;;;4757025;29;94913;-65
2022/10/24 06:31:11;;;;;;;25.90;11.03;;;11.80;99.90;11.90;100150.00;;;;4753110;29;110577;-64
2022/10/24 06:33:36;;;;;;;20.63;12.40;;;11.90;99.90;12.00;100157.00;;;;4750875;29;92989;-65
2022/10/24 06:36:05;;;;;;;18.87;11.00;;;12.00;99.90;12.30;100155.00;;;;4749576;29;122024;-65
2022/10/24 06:38:32;;;;;;;14.40;9.60;;;12.20;99.90;12.50;100160.00;;;;4751295;29;92882;-65
2022/10/24 06:40:57;;;;;;;14.13;7.43;;;12.40;99.90;12.80;100160.00;;;;4751618;29;111900;-64
2022/10/24 06:43:23;;;;;;;8.87;5.57;;;12.70;99.90;13.10;100170.00;;;;4758671;29;103825;-65
2022/10/24 06:45:49;;;;;;;6.93;5.27;;;12.90;99.90;13.40;100159.00;;;;4747914;29;93226;-65
2022/10/24 06:48:15;;;;;;;7.43;5.00;;;13.20;99.90;13.70;100152.00;;;;4752108;29;98016;-64
2022/10/24 06:50:41;;;;;;;7.20;4.83;;;13.50;99.90;13.90;100157.00;;;;4756616;29;93709;-64
2022/10/24 06:53:08;;;;;;;4.77;3.33;;;13.80;99.90;14.10;100142.00;;;;4753213;29;92888;-66
2022/10/24 06:55:37;;;;;;;5.73;4.00;;;14.00;99.90;14.20;100138.00;;;;4750707;29;114915;-64
2022/10/24 06:58:04;;;;;;;3.27;2.80;;;14.10;99.90;14.20;100138.00;;;;4749922;29;114691;-64
2022/10/24 07:00:29;;;;;;;4.17;2.13;;;14.20;99.90;14.20;100131.00;;;;4749782;29;92874;-64
2022/10/24 07:02:55;;;;;;;2.23;1.70;;;14.20;99.90;14.20;100123.00;;;;4752640;29;108543;-64
2022/10/24 07:05:21;;;;;;;1.97;1.47;;;14.20;99.90;14.20;100118.00;;;;4757777;29;122916;-64
2022/10/24 07:07:46;;;;;;;2.70;2.27;;;14.20;99.90;14.30;100123.00;;;;4747900;29;123364;-65
2022/10/24 07:10:13;;;;;;;5.07;2.57;;;14.30;99.90;14.30;100136.00;;;;4751392;29;111650;-64
2022/10/24 07:12:39;;;;;;;8.53;2.50;;;14.30;99.90;14.40;100141.00;;;;4756319;29;92944;-64
2022/10/24 07:15:05;;;;;;;4.57;2.07;;;14.40;99.90;14.50;100143.00;;;;4751869;29;122845;-65
2022/10/24 07:17:39;;;;;;;3.90;1.93;;;14.40;99.90;14.50;100143.00;;;;4749979;29;94907;-65
2022/10/24 07:20:05;;;;;;;3.20;2.57;;;14.50;99.90;14.70;100156.00;;;;4748926;29;93068;-64
2022/10/24 07:22:31;;;;;;;7.03;2.87;;;14.60;99.90;14.80;100162.00;;;;4749463;29;101990;-64
2022/10/24 07:24:56;;;;;;;7.53;2.83;;;14.70;99.90;14.90;100162.00;;;;4748489;29;122867;-65
2022/10/24 07:27:23;;;;;;;2.83;2.05;;;14.90;99.90;15.10;100167.00;;;;4760738;29;121815;-64
2022/10/24 07:29:50;;;;;;;4.07;2.22;;;15.00;99.90;15.20;100169.00;;;;4746961;29;110369;-64
2022/10/24 07:32:16;;;;;;;3.45;2.13;;;15.10;99.90;15.20;100178.00;;;;4751684;29;92170;-64
2022/10/24 07:34:42;;;;;;;4.72;2.33;;;15.10;99.90;15.30;100183.00;;;;4752507;29;94389;-64
2022/10/24 07:37:08;;;;;;;3.10;1.52;;;15.20;99.90;15.40;100179.00;;;;4748536;29;122303;-64
2022/10/24 07:39:33;;;;;;;3.85;1.90;;;15.30;99.90;15.50;100185.00;;;;4752378;29;93806;-64
2022/10/24 07:41:59;;;;;;;5.30;2.25;;;15.40;99.90;15.60;100185.00;;;;4748918;29;92983;-64
2022/10/24 07:44:25;;;;;;;6.05;2.47;;;15.50;99.90;15.80;100182.00;;;;4750624;29;121922;-63
2022/10/24 07:46:50;;;;;;;2.70;2.15;;;15.60;99.90;15.90;100172.00;;;;4756014;29;118209;-64
2022/10/24 07:49:16;;;;;;;2.40;1.92;;;15.80;99.90;16.10;100168.00;;;;4755166;29;110214;-63
2022/10/24 07:51:42;;;;;;;4.97;2.28;;;15.90;99.90;16.30;100164.00;;;;4748555;29;109579;-64
2022/10/24 07:54:08;;;;;;;2.72;2.17;;;16.10;99.90;16.60;100175.00;;;;4750368;29;120407;-63
2022/10/24 07:56:34;;;;;;;5.05;2.35;;;16.40;99.90;16.80;100169.00;;;;4750634;29;122694;-64
2022/10/24 07:59:00;;;;;;;2.67;2.45;;;16.60;99.90;17.10;100161.00;;;;4752600;29;92939;-63
2022/10/24 08:01:27;;;;;;;4.65;3.08;;;16.90;99.90;17.50;100159.00;;;;4753961;29;92923;-63
2022/10/24 08:03:54;;;;;;;2.47;1.90;;;17.20;99.90;17.80;100163.00;;;;4746787;29;94469;-63
2022/10/24 08:06:28;;;;;;;4.47;2.30;;;17.60;99.90;18.10;100158.00;;;;4751544;29;97703;-63
2022/10/24 08:08:54;;;;;;;1.42;1.05;;;17.80;99.90;18.30;100170.00;;;;4756799;29;92858;-64
2022/10/24 08:11:23;;;;;;;3.80;1.45;;;18.10;99.90;18.40;100167.00;;;;4751732;29;95803;-62
2022/10/24 08:13:51;;;;;;;2.22;1.98;;;18.30;99.90;18.60;100168.00;;;;4750292;29;115330;-62
2022/10/24 08:16:20;;;;;;;2.92;1.90;;;18.50;99.90;18.80;100165.00;;;;4749408;29;95181;-63
2022/10/24 08:18:47;;;;;;;6.45;2.05;;;18.60;99.90;18.90;100176.00;;;;4749631;29;93356;-63
2022/10/24 08:21:14;;;;;;;2.30;1.67;;;18.80;99.90;19.10;100181.00;;;;4750967;29;92163;-62
2022/10/24 08:23:45;;;;;;;4.03;1.42;;;19.00;99.90;19.30;100173.00;;;;4756097;29;93796;-63
2022/10/24 08:26:15;;;;;;;3.60;2.25;;;19.20;99.90;19.50;100173.00;;;;4746810;29;93443;-62
2022/10/24 08:28:42;;;;;;;3.55;1.70;;;19.30;99.90;19.80;100167.00;;;;4753284;29;93875;-63
2022/10/24 08:31:13;;;;;;;4.10;2.33;;;19.60;99.90;20.00;100171.00;;;;4755515;29;93100;-63
2022/10/24 08:33:40;;;;;;;2.70;1.35;;;19.80;99.90;20.30;100180.00;;;;4748215;29;111135;-63
2022/10/24 08:36:25;;;;;;;4.03;2.08;;;20.00;99.90;20.50;100187.00;;;;4747807;29;93633;-63
2022/10/24 08:38:51;;;;;;;2.40;1.63;;;20.20;99.90;20.70;100190.00;;;;4750628;29;92800;-63
2022/10/24 08:41:42;;;;;;;2.28;1.60;;;20.50;99.90;21.00;100193.00;;;;4748849;29;93019;-63
2022/10/24 08:44:27;;;;;;;1.98;1.40;;;20.70;99.90;21.40;100199.00;;;;4756148;29;93840;-63
2022/10/24 08:47:03;;;;;;;2.55;1.48;;;21.10;99.90;21.60;100200.00;;;;4759351;29;114519;-64
2022/10/24 08:49:51;;;;;;;7.10;1.83;;;21.40;99.90;21.80;100200.00;;;;4773405;29;93253;-63
2022/10/24 08:52:37;;;;;;;3.92;1.50;;;21.60;99.90;22.00;100196.00;;;;4770004;29;93284;-63
2022/10/24 08:55:18;;;;;;;2.78;1.45;;;21.70;99.90;22.00;100181.00;;;;4767573;29;94660;-62
2022/10/24 08:57:51;;;;;;;2.47;1.25;;;21.80;99.90;21.90;100186.00;;;;4767733;29;93239;-64
2022/10/24 09:00:28;;;;;;;2.78;1.17;;;21.80;99.90;21.80;100191.00;;;;4764487;29;93212;-63
2022/10/24 09:03:20;;;;;;;1.67;1.42;;;21.70;99.90;21.60;100192.00;;;;4732138;29;92942;-63
2022/10/24 09:05:55;;;;;;;7.45;1.60;;;21.60;99.90;21.50;100189.00;;;;4758170;29;93824;-63
2022/10/24 09:08:38;;;;;;;2.83;1.55;;;21.40;99.90;21.40;100193.00;;;;4747745;29;117300;-62
2022/10/24 09:11:06;;;;;;;11.10;1.77;;;21.30;99.90;21.30;100191.00;;;;4737264;29;93052;-62
2022/10/24 09:13:35;;;;;;;5.32;1.80;;;21.20;99.90;21.30;100199.00;;;;4753525;29;92143;-63
2022/10/24 09:16:02;;;;;;;1.23;1.13;;;21.20;99.90;21.30;100188.00;;;;4767776;29;104622;-62
2022/10/24 09:18:40;;;;;;;3.78;1.52;;;21.10;99.90;21.30;100193.00;;;;4751856;29;93074;-63
2022/10/24 09:21:08;;;;;;;2.53;0.93;;;21.10;99.90;21.30;100185.00;;;;4746645;29;93866;-63
2022/10/24 09:23:36;;;;;;;2.90;1.25;;;21.20;99.90;21.40;100185.00;;;;4731738;29;92916;-62
2022/10/24 09:26:06;;;;;;;2.85;1.30;;;21.20;99.90;21.40;100186.00;;;;4769155;29;96135;-62
2022/10/24 09:28:35;;;;;;;3.95;1.40;;;21.30;99.90;21.40;100198.00;;;;4753268;29;93188;-63
2022/10/24 09:31:30;;;;;;;1.77;1.17;;;21.30;99.90;21.50;100187.00;;;;4745576;29;101284;-63
2022/10/24 09:33:59;;;;;;;2.35;1.40;;;21.40;99.90;21.70;100185.00;;;;4741532;29;108637;-63
2022/10/24 09:36:29;;;;;;;1.77;0.88;;;21.40;99.90;21.70;100188.00;;;;4749171;29;94347;-63
2022/10/24 09:38:54;;;;;;;2.47;1.23;;;21.50;99.90;21.90;100185.00;;;;4750212;29;93919;-63
2022/10/24 09:41:32;;;;;;;4.10;1.30;;;21.60;99.90;22.10;100183.00;;;;4751569;29;110374;-61
2022/10/24 09:44:03;;;;;;;1.30;0.85;;;21.90;99.90;22.30;100175.00;;;;4764705;29;93128;-62
2022/10/24 09:46:38;;;;;;;2.63;1.73;;;22.00;99.90;22.50;100175.00;;;;4768045;29;93933;-62
2022/10/24 09:49:08;;;;;;;3.70;1.48;;;22.20;99.60;22.70;100177.00;;;;4760526;29;93368;-62
2022/10/24 09:51:39;;;;;;;3.45;1.45;;;22.50;99.00;23.00;100176.00;;;;4772200;29;99499;-62
2022/10/24 09:54:17;;;;;;;1.73;1.23;;;22.70;98.90;23.30;100182.00;;;;4750374;29;93081;-62
2022/10/24 09:57:09;;;;;;;1.45;1.17;;;23.00;98.30;23.70;100193.00;;;;4752738;29;123866;-62
2022/10/24 09:59:57;;;;;;;2.78;1.35;;;23.30;98.00;23.90;100187.00;;;;4752676;29;93103;-61
2022/10/24 10:02:33;;;;;;;3.05;1.55;;;23.60;96.80;24.10;100185.00;;;;4755248;29;92940;-62
2022/10/24 10:05:02;;;;;;;3.13;1.55;;;23.70;95.00;24.10;100191.00;;;;4750400;29;92104;-61
2022/10/24 10:07:35;;;;;;;2.78;1.27;;;23.80;93.20;24.00;100181.00;;;;4751876;29;93616;-61
2022/10/24 10:10:33;;;;;;;4.85;1.27;;;23.80;92.80;23.80;100175.00;;;;4757912;29;92897;-62
2022/10/24 10:13:23;;;;;;;5.68;1.77;;;23.70;91.70;23.40;100174.00;;;;4756414;29;93933;-62
2022/10/24 10:15:57;;;;;;;3.03;1.23;;;23.30;91.20;23.00;100181.00;;;;4771241;29;92909;-62
2022/10/24 10:18:38;;;;;;;1.27;0.88;;;23.00;91.70;22.70;100178.00;;;;4735548;29;106002;-63
2022/10/24 10:21:06;;;;;;;1.23;1.13;;;22.70;92.70;22.50;100181.00;;;;4751428;29;121280;-62
2022/10/24 10:23:55;;;;;;;2.00;1.17;;;22.50;93.30;22.20;100181.00;;;;4758700;29;92953;-63
2022/10/24 10:26:42;;;;;;;2.50;1.58;;;22.20;93.80;22.10;100186.00;;;;4762904;29;92974;-61
2022/10/24 10:29:17;;;;;;;2.30;1.90;;;22.00;94.80;22.00;100182.00;;;;4750944;29;93076;-62
2022/10/24 10:31:59;;;;;;;1.55;0.85;;;21.90;95.40;21.90;100176.00;;;;4756008;29;93499;-61
2022/10/24 10:34:35;;;;;;;1.50;1.17;;;21.80;95.50;21.80;100186.00;;;;4772250;29;103932;-62
2022/10/24 10:37:24;;;;;;;1.80;1.40;;;21.60;96.10;21.60;100188.00;;;;4747885;29;92990;-61
2022/10/24 10:40:18;;;;;;;3.65;1.58;;;21.60;96.70;21.60;100202.00;;;;4750267;29;107098;-61
2022/10/24 10:43:28;;;;;;;1.75;1.25;;;21.50;96.70;21.40;100193.00;;;;4749722;29;106091;-62
2022/10/24 10:46:29;;;;;;;3.33;1.40;;;21.40;97.30;21.40;100187.00;;;;4760829;29;103207;-61
2022/10/24 10:49:16;;;;;;;6.15;1.77;;;21.30;97.80;21.30;100188.00;;;;4747453;29;93110;-63
2022/10/24 10:52:06;;;;;;;2.40;1.85;;;21.20;98.00;21.20;100181.00;;;;4768736;29;93670;-64
2022/10/24 10:55:08;;;;;;;2.78;1.08;;;21.10;98.60;21.10;100181.00;;;;4753304;29;93094;-62
2022/10/24 10:57:53;;;;;;;2.10;1.13;;;21.00;99.00;21.00;100169.00;;;;4752208;29;104439;-62
2022/10/24 11:01:01;;;;;;;3.83;2.00;;;20.90;99.50;20.90;100182.00;;;;4767159;29;92158;-60